sensor_id;sensor_type;location;lat;lon;timestamp;pressure;altitude;pressure_sealevel;temperature;humidity
33554;BME280;19885;42.208;24.952;2023-04-27T00:01:36;99291.06;;;12.79;78.45
33554;BME280;19885;42.208;24.952;2023-04-27T00:04:02;99330.25;;;12.85;78.54
33554;BME280;19885;42.208;24.952;2023-04-27T00:06:31;99324.25;;;12.75;78.50
33554;BME280;19885;42.208;24.952;2023-04-27T00:08:58;99333.63;;;12.95;78.21
33554;BME280;19885;42.208;24.952;2023-04-27T00:11:24;99317.50;;;12.55;78.28
33554;BME280;19885;42.208;24.952;2023-04-27T00:13:50;99325.16;;;12.70;78.95
33554;BME280;19885;42.208;24.952;2023-04-27T00:16:15;99346.13;;;12.65;78.14
33554;BME280;19885;42.208;24.952;2023-04-27T00:18:41;99349.63;;;12.67;77.27
33554;BME280;19885;42.208;24.952;2023-04-27T00:21:08;99327.81;;;12.68;78.48
33554;BME280;19885;42.208;24.952;2023-04-27T00:23:34;99347.69;;;12.81;79.19
33554;BME280;19885;42.208;24.952;2023-04-27T00:26:00;99351.72;;;13.14;77.73
33554;BME280;19885;42.208;24.952;2023-04-27T00:28:26;99341.50;;;12.92;77.67
33554;BME280;19885;42.208;24.952;2023-04-27T00:30:51;99342.72;;;12.59;77.86
33554;BME280;19885;42.208;24.952;2023-04-27T00:33:20;99347.56;;;12.95;77.77
33554;BME280;19885;42.208;24.952;2023-04-27T00:35:46;99361.56;;;12.89;78.02
33554;BME280;19885;42.208;24.952;2023-04-27T00:38:13;99370.19;;;12.98;77.85
33554;BME280;19885;42.208;24.952;2023-04-27T00:40:38;99364.88;;;13.07;78.52
33554;BME280;19885;42.208;24.952;2023-04-27T00:43:04;99365.81;;;13.01;78.29
33554;BME280;19885;42.208;24.952;2023-04-27T00:45:40;99384.94;;;13.05;78.20
33554;BME280;19885;42.208;24.952;2023-04-27T00:48:07;99369.28;;;13.03;78.79
33554;BME280;19885;42.208;24.952;2023-04-27T00:50:33;99375.50;;;12.92;78.86
33554;BME280;19885;42.208;24.952;2023-04-27T00:52:59;99361.66;;;12.82;79.01
33554;BME280;19885;42.208;24.952;2023-04-27T00:55:25;99388.41;;;13.10;79.23
33554;BME280;19885;42.208;24.952;2023-04-27T00:57:51;99382.31;;;13.05;79.70
33554;BME280;19885;42.208;24.952;2023-04-27T01:00:16;99373.56;;;13.12;80.40
33554;BME280;19885;42.208;24.952;2023-04-27T01:02:42;99390.19;;;13.08;79.27
33554;BME280;19885;42.208;24.952;2023-04-27T01:05:08;99393.81;;;12.92;78.85
33554;BME280;19885;42.208;24.952;2023-04-27T01:07:38;99395.50;;;12.96;79.56
33554;BME280;19885;42.208;24.952;2023-04-27T01:10:05;99405.19;;;12.86;80.36
33554;BME280;19885;42.208;24.952;2023-04-27T01:12:31;99381.84;;;12.66;79.84
33554;BME280;19885;42.208;24.952;2023-04-27T01:14:57;99399.16;;;12.79;81.16
33554;BME280;19885;42.208;24.952;2023-04-27T01:17:22;99418.97;;;13.02;80.34
33554;BME280;19885;42.208;24.952;2023-04-27T01:19:48;99425.22;;;12.87;81.35
33554;BME280;19885;42.208;24.952;2023-04-27T01:22:15;99381.00;;;12.64;81.83
33554;BME280;19885;42.208;24.952;2023-04-27T01:24:41;99417.50;;;12.76;81.89
33554;BME280;19885;42.208;24.952;2023-04-27T01:27:06;99424.34;;;12.86;82.81
33554;BME280;19885;42.208;24.952;2023-04-27T01:29:32;99431.47;;;12.71;82.73
33554;BME280;19885;42.208;24.952;2023-04-27T01:31:57;99439.97;;;12.93;82.54
33554;BME280;19885;42.208;24.952;2023-04-27T01:34:23;99419.34;;;12.64;82.70
33554;BME280;19885;42.208;24.952;2023-04-27T01:36:48;99438.44;;;12.73;83.03
33554;BME280;19885;42.208;24.952;2023-04-27T01:39:14;99434.88;;;12.80;82.48
33554;BME280;19885;42.208;24.952;2023-04-27T01:41:40;99434.81;;;12.86;82.48
33554;BME280;19885;42.208;24.952;2023-04-27T01:44:06;99409.97;;;12.39;83.26
33554;BME280;19885;42.208;24.952;2023-04-27T01:46:31;99437.75;;;12.50;83.32
33554;BME280;19885;42.208;24.952;2023-04-27T01:48:57;99444.63;;;12.62;82.85
33554;BME280;19885;42.208;24.952;2023-04-27T01:51:22;99441.19;;;12.58;83.37
33554;BME280;19885;42.208;24.952;2023-04-27T01:53:48;99391.88;;;12.13;82.23
33554;BME280;19885;42.208;24.952;2023-04-27T01:56:13;99442.06;;;12.57;83.83
33554;BME280;19885;42.208;24.952;2023-04-27T01:58:39;99438.66;;;12.48;83.99
33554;BME280;19885;42.208;24.952;2023-04-27T02:01:04;99434.38;;;12.36;82.64
33554;BME280;19885;42.208;24.952;2023-04-27T02:03:29;99443.88;;;12.49;81.06
33554;BME280;19885;42.208;24.952;2023-04-27T02:05:55;99437.72;;;12.55;81.37
33554;BME280;19885;42.208;24.952;2023-04-27T02:08:20;99437.84;;;12.40;80.63
33554;BME280;19885;42.208;24.952;2023-04-27T02:10:46;99451.78;;;12.42;80.47
33554;BME280;19885;42.208;24.952;2023-04-27T02:13:11;99443.91;;;12.45;80.88
33554;BME280;19885;42.208;24.952;2023-04-27T02:15:37;99447.28;;;12.60;81.29
33554;BME280;19885;42.208;24.952;2023-04-27T02:18:02;99431.69;;;12.45;80.11
33554;BME280;19885;42.208;24.952;2023-04-27T02:20:29;99434.28;;;12.48;80.29
33554;BME280;19885;42.208;24.952;2023-04-27T02:22:55;99452.50;;;12.60;80.56
33554;BME280;19885;42.208;24.952;2023-04-27T02:25:21;99455.16;;;12.56;80.58
33554;BME280;19885;42.208;24.952;2023-04-27T02:27:46;99442.16;;;12.45;80.18
33554;BME280;19885;42.208;24.952;2023-04-27T02:30:12;99398.00;;;12.12;80.53
33554;BME280;19885;42.208;24.952;2023-04-27T02:32:38;99457.66;;;12.69;79.78
33554;BME280;19885;42.208;24.952;2023-04-27T02:35:05;99454.19;;;12.67;78.95
33554;BME280;19885;42.208;24.952;2023-04-27T02:37:31;99459.56;;;12.49;79.20
33554;BME280;19885;42.208;24.952;2023-04-27T02:39:56;99416.06;;;12.42;80.26
33554;BME280;19885;42.208;24.952;2023-04-27T02:42:21;99478.66;;;12.54;80.21
33554;BME280;19885;42.208;24.952;2023-04-27T02:44:47;99475.19;;;12.52;80.25
33554;BME280;19885;42.208;24.952;2023-04-27T02:47:13;99473.47;;;12.51;81.27
33554;BME280;19885;42.208;24.952;2023-04-27T02:49:38;99486.50;;;12.54;80.56
33554;BME280;19885;42.208;24.952;2023-04-27T02:52:04;99481.31;;;12.51;79.68
33554;BME280;19885;42.208;24.952;2023-04-27T02:54:29;99471.88;;;12.32;80.69
33554;BME280;19885;42.208;24.952;2023-04-27T02:56:55;99477.09;;;12.35;81.62
33554;BME280;19885;42.208;24.952;2023-04-27T02:59:20;99490.09;;;12.38;81.37
33554;BME280;19885;42.208;24.952;2023-04-27T03:01:46;99484.78;;;12.53;80.52
33554;BME280;19885;42.208;24.952;2023-04-27T03:04:11;99489.25;;;12.39;79.70
33554;BME280;19885;42.208;24.952;2023-04-27T03:06:41;99503.16;;;12.38;79.91
33554;BME280;19885;42.208;24.952;2023-04-27T03:09:07;99489.25;;;12.39;81.18
33554;BME280;19885;42.208;24.952;2023-04-27T03:11:34;99511.06;;;12.31;79.44
33554;BME280;19885;42.208;24.952;2023-04-27T03:14:00;99483.31;;;12.14;81.98
33554;BME280;19885;42.208;24.952;2023-04-27T03:16:26;99497.16;;;12.23;80.29
33554;BME280;19885;42.208;24.952;2023-04-27T03:18:51;99502.41;;;12.23;80.01
33554;BME280;19885;42.208;24.952;2023-04-27T03:21:17;99496.34;;;12.13;79.86
33554;BME280;19885;42.208;24.952;2023-04-27T03:23:42;99504.19;;;12.13;79.50
33554;BME280;19885;42.208;24.952;2023-04-27T03:26:09;99505.06;;;12.15;79.99
33554;BME280;19885;42.208;24.952;2023-04-27T03:28:35;99506.84;;;12.04;78.43
33554;BME280;19885;42.208;24.952;2023-04-27T03:31:08;99512.94;;;12.04;78.25
33554;BME280;19885;42.208;24.952;2023-04-27T03:33:34;99512.09;;;12.02;79.86
33554;BME280;19885;42.208;24.952;2023-04-27T03:36:04;99504.34;;;11.87;78.65
33554;BME280;19885;42.208;24.952;2023-04-27T03:38:31;99525.25;;;11.83;78.64
33554;BME280;19885;42.208;24.952;2023-04-27T03:40:57;99510.47;;;11.80;78.16
33554;BME280;19885;42.208;24.952;2023-04-27T03:43:23;99521.75;;;11.90;79.20
33554;BME280;19885;42.208;24.952;2023-04-27T03:45:49;99504.41;;;11.74;78.69
33554;BME280;19885;42.208;24.952;2023-04-27T03:48:15;99526.09;;;11.82;78.69
33554;BME280;19885;42.208;24.952;2023-04-27T03:50:42;99530.44;;;11.86;78.80
33554;BME280;19885;42.208;24.952;2023-04-27T03:53:08;99517.41;;;11.83;78.53
33554;BME280;19885;42.208;24.952;2023-04-27T03:55:37;99526.13;;;11.83;78.19
33554;BME280;19885;42.208;24.952;2023-04-27T03:58:03;99532.22;;;11.75;77.69
33554;BME280;19885;42.208;24.952;2023-04-27T04:00:28;99537.44;;;11.78;77.31
33554;BME280;19885;42.208;24.952;2023-04-27T04:02:54;99537.38;;;11.88;78.13
33554;BME280;19885;42.208;24.952;2023-04-27T04:05:19;99548.66;;;12.01;78.85
33554;BME280;19885;42.208;24.952;2023-04-27T04:07:45;99550.38;;;12.02;79.62
33554;BME280;19885;42.208;24.952;2023-04-27T04:10:10;99540.84;;;11.90;77.72
33554;BME280;19885;42.208;24.952;2023-04-27T04:12:36;99544.28;;;12.04;78.27
33554;BME280;19885;42.208;24.952;2023-04-27T04:15:04;99539.97;;;11.96;78.44
33554;BME280;19885;42.208;24.952;2023-04-27T04:17:30;99553.88;;;11.99;78.48
33554;BME280;19885;42.208;24.952;2023-04-27T04:19:58;99507.88;;;11.62;76.74
33554;BME280;19885;42.208;24.952;2023-04-27T04:22:23;99500.06;;;11.71;77.79
33554;BME280;19885;42.208;24.952;2023-04-27T04:24:48;99559.06;;;12.10;78.67
33554;BME280;19885;42.208;24.952;2023-04-27T04:27:15;99565.13;;;12.16;76.62
33554;BME280;19885;42.208;24.952;2023-04-27T04:29:41;99557.22;;;12.30;78.58
33554;BME280;19885;42.208;24.952;2023-04-27T04:32:06;99564.13;;;12.46;78.20
33554;BME280;19885;42.208;24.952;2023-04-27T04:34:34;99554.53;;;12.47;77.61
33554;BME280;19885;42.208;24.952;2023-04-27T04:37:00;99571.88;;;12.57;77.61
33554;BME280;19885;42.208;24.952;2023-04-27T04:39:30;99567.41;;;12.78;76.37
33554;BME280;19885;42.208;24.952;2023-04-27T04:41:55;99558.69;;;12.76;76.93
33554;BME280;19885;42.208;24.952;2023-04-27T04:44:21;99564.63;;;12.95;75.96
33554;BME280;19885;42.208;24.952;2023-04-27T04:46:47;99541.34;;;12.63;75.38
33554;BME280;19885;42.208;24.952;2023-04-27T04:49:12;99576.03;;;12.89;76.07
33554;BME280;19885;42.208;24.952;2023-04-27T04:51:41;99575.91;;;13.02;75.27
33554;BME280;19885;42.208;24.952;2023-04-27T04:54:07;99564.63;;;12.95;75.50
33554;BME280;19885;42.208;24.952;2023-04-27T04:56:33;99574.31;;;12.85;74.82
33554;BME280;19885;42.208;24.952;2023-04-27T04:58:58;99587.41;;;12.79;74.25
33554;BME280;19885;42.208;24.952;2023-04-27T05:01:24;99586.56;;;12.74;74.93
33554;BME280;19885;42.208;24.952;2023-04-27T05:03:49;99588.31;;;12.78;74.60
33554;BME280;19885;42.208;24.952;2023-04-27T05:06:15;99596.16;;;12.75;75.03
33554;BME280;19885;42.208;24.952;2023-04-27T05:08:40;99594.38;;;12.85;75.96
33554;BME280;19885;42.208;24.952;2023-04-27T05:11:06;99595.06;;;13.10;74.84
33554;BME280;19885;42.208;24.952;2023-04-27T05:13:31;99596.88;;;12.99;75.23
33554;BME280;19885;42.208;24.952;2023-04-27T05:15:57;99603.78;;;13.04;73.86
33554;BME280;19885;42.208;24.952;2023-04-27T05:18:22;99596.25;;;12.62;73.39
33554;BME280;19885;42.208;24.952;2023-04-27T05:20:47;99602.31;;;12.65;73.14
33554;BME280;19885;42.208;24.952;2023-04-27T05:23:13;99607.41;;;12.89;75.65
33554;BME280;19885;42.208;24.952;2023-04-27T05:25:38;99617.78;;;13.08;74.64
33554;BME280;19885;42.208;24.952;2023-04-27T05:28:08;99609.94;;;13.03;74.05
33554;BME280;19885;42.208;24.952;2023-04-27T05:30:34;99609.09;;;12.97;74.17
33554;BME280;19885;42.208;24.952;2023-04-27T05:33:00;99616.84;;;13.13;73.12
33554;BME280;19885;42.208;24.952;2023-04-27T05:35:26;99616.94;;;12.95;73.00
33554;BME280;19885;42.208;24.952;2023-04-27T05:37:51;99619.47;;;13.15;74.54
33554;BME280;19885;42.208;24.952;2023-04-27T05:40:17;99622.09;;;13.09;74.56
33554;BME280;19885;42.208;24.952;2023-04-27T05:42:45;99595.81;;;13.25;73.99
33554;BME280;19885;42.208;24.952;2023-04-27T05:45:10;99620.09;;;13.41;71.58
33554;BME280;19885;42.208;24.952;2023-04-27T05:47:36;99608.81;;;13.36;70.38
33554;BME280;19885;42.208;24.952;2023-04-27T05:50:01;99619.19;;;13.48;70.66
33554;BME280;19885;42.208;24.952;2023-04-27T05:52:28;99615.69;;;13.47;71.11
33554;BME280;19885;42.208;24.952;2023-04-27T05:54:55;99624.16;;;13.72;69.59
33554;BME280;19885;42.208;24.952;2023-04-27T05:57:23;99620.38;;;14.00;70.03
33554;BME280;19885;42.208;24.952;2023-04-27T05:59:49;99628.97;;;14.14;68.40
33554;BME280;19885;42.208;24.952;2023-04-27T06:02:16;99637.78;;;14.07;69.14
33554;BME280;19885;42.208;24.952;2023-04-27T06:04:41;99619.47;;;14.06;69.91
33554;BME280;19885;42.208;24.952;2023-04-27T06:07:08;99634.78;;;14.41;70.29
33554;BME280;19885;42.208;24.952;2023-04-27T06:09:33;99614.78;;;14.29;66.86
33554;BME280;19885;42.208;24.952;2023-04-27T06:11:59;99632.84;;;14.55;67.47
33554;BME280;19885;42.208;24.952;2023-04-27T06:14:24;99635.28;;;14.68;69.16
33554;BME280;19885;42.208;24.952;2023-04-27T06:16:50;99640.56;;;14.67;66.75
33554;BME280;19885;42.208;24.952;2023-04-27T06:19:15;99633.53;;;14.72;66.09
33554;BME280;19885;42.208;24.952;2023-04-27T06:21:41;99628.41;;;14.63;67.27
33554;BME280;19885;42.208;24.952;2023-04-27T06:24:06;99633.78;;;14.51;65.02
33554;BME280;19885;42.208;24.952;2023-04-27T06:26:32;99624.25;;;14.44;66.56
33554;BME280;19885;42.208;24.952;2023-04-27T06:28:57;99651.31;;;14.49;67.11
33554;BME280;19885;42.208;24.952;2023-04-27T06:31:24;99645.81;;;14.67;67.07
33554;BME280;19885;42.208;24.952;2023-04-27T06:33:49;99648.69;;;14.49;65.21
33554;BME280;19885;42.208;24.952;2023-04-27T06:36:15;99641.53;;;14.60;65.39
33554;BME280;19885;42.208;24.952;2023-04-27T06:38:40;99638.19;;;14.49;64.73
33554;BME280;19885;42.208;24.952;2023-04-27T06:41:06;99646.81;;;14.58;64.37
33554;BME280;19885;42.208;24.952;2023-04-27T06:43:31;99643.75;;;14.21;65.13
33554;BME280;19885;42.208;24.952;2023-04-27T06:45:57;99624.44;;;14.28;65.79
33554;BME280;19885;42.208;24.952;2023-04-27T06:48:22;99608.63;;;14.36;66.40
33554;BME280;19885;42.208;24.952;2023-04-27T06:50:48;99656.47;;;14.52;65.38
33554;BME280;19885;42.208;24.952;2023-04-27T06:53:13;99666.09;;;14.53;63.54
33554;BME280;19885;42.208;24.952;2023-04-27T06:55:41;99659.91;;;14.60;65.59
33554;BME280;19885;42.208;24.952;2023-04-27T06:58:07;99660.16;;;15.02;63.98
33554;BME280;19885;42.208;24.952;2023-04-27T07:00:32;99652.41;;;14.95;62.81
33554;BME280;19885;42.208;24.952;2023-04-27T07:02:58;99662.25;;;14.81;61.11
33554;BME280;19885;42.208;24.952;2023-04-27T07:05:23;99664.03;;;14.77;62.28
33554;BME280;19885;42.208;24.952;2023-04-27T07:07:49;99662.44;;;14.67;64.99
33554;BME280;19885;42.208;24.952;2023-04-27T07:10:14;99676.34;;;14.71;62.75
33554;BME280;19885;42.208;24.952;2023-04-27T07:12:41;99676.63;;;14.51;64.07
33554;BME280;19885;42.208;24.952;2023-04-27T07:15:07;99679.34;;;14.41;63.27
33554;BME280;19885;42.208;24.952;2023-04-27T07:17:33;99686.28;;;14.46;65.65
33554;BME280;19885;42.208;24.952;2023-04-27T07:20:00;99671.53;;;14.38;65.22
33554;BME280;19885;42.208;24.952;2023-04-27T07:22:25;99676.84;;;14.27;63.60
33554;BME280;19885;42.208;24.952;2023-04-27T07:24:51;99671.63;;;14.28;64.33
33554;BME280;19885;42.208;24.952;2023-04-27T07:27:16;99676.09;;;14.19;63.92
33554;BME280;19885;42.208;24.952;2023-04-27T07:29:42;99678.59;;;14.26;64.74
33554;BME280;19885;42.208;24.952;2023-04-27T07:32:08;99668.00;;;14.40;66.16
33554;BME280;19885;42.208;24.952;2023-04-27T07:34:34;99617.84;;;13.94;65.49
33554;BME280;19885;42.208;24.952;2023-04-27T07:37:00;99672.28;;;14.49;66.70
33554;BME280;19885;42.208;24.952;2023-04-27T07:39:26;99673.66;;;14.77;65.26
33554;BME280;19885;42.208;24.952;2023-04-27T07:41:52;99671.97;;;14.73;65.17
33554;BME280;19885;42.208;24.952;2023-04-27T07:44:18;99676.28;;;14.78;64.90
33554;BME280;19885;42.208;24.952;2023-04-27T07:46:44;99670.97;;;14.81;64.51
33554;BME280;19885;42.208;24.952;2023-04-27T07:49:11;99673.78;;;14.69;64.10
33554;BME280;19885;42.208;24.952;2023-04-27T07:51:37;99664.81;;;14.84;65.53
33554;BME280;19885;42.208;24.952;2023-04-27T07:54:03;99664.78;;;14.87;63.44
33554;BME280;19885;42.208;24.952;2023-04-27T07:56:28;99673.78;;;15.27;63.87
33554;BME280;19885;42.208;24.952;2023-04-27T07:58:54;99633.13;;;14.99;63.74
33554;BME280;19885;42.208;24.952;2023-04-27T08:01:19;99669.50;;;15.23;61.60
33554;BME280;19885;42.208;24.952;2023-04-27T08:03:45;99674.56;;;15.35;62.60
33554;BME280;19885;42.208;24.952;2023-04-27T08:06:10;99679.00;;;15.84;62.41
33554;BME280;19885;42.208;24.952;2023-04-27T08:08:36;99675.13;;;16.06;62.01
33554;BME280;19885;42.208;24.952;2023-04-27T08:11:02;99678.25;;;16.26;62.97
33554;BME280;19885;42.208;24.952;2023-04-27T08:13:28;99682.41;;;16.37;60.91
33554;BME280;19885;42.208;24.952;2023-04-27T08:15:53;99685.00;;;16.39;61.13
33554;BME280;19885;42.208;24.952;2023-04-27T08:18:23;99684.56;;;16.62;59.83
33554;BME280;19885;42.208;24.952;2023-04-27T08:20:48;99680.97;;;16.66;61.36
33554;BME280;19885;42.208;24.952;2023-04-27T08:23:14;99681.41;;;16.86;61.63
33554;BME280;19885;42.208;24.952;2023-04-27T08:25:40;99680.56;;;16.85;59.60
33554;BME280;19885;42.208;24.952;2023-04-27T08:28:05;99677.06;;;16.83;58.09
33554;BME280;19885;42.208;24.952;2023-04-27T08:30:31;99672.38;;;16.97;60.48
33554;BME280;19885;42.208;24.952;2023-04-27T08:32:56;99671.72;;;17.25;58.79
33554;BME280;19885;42.208;24.952;2023-04-27T08:35:22;99658.16;;;17.04;59.94
33554;BME280;19885;42.208;24.952;2023-04-27T08:37:47;99668.06;;;16.93;58.68
33554;BME280;19885;42.208;24.952;2023-04-27T08:40:13;99624.50;;;16.80;58.51
33554;BME280;19885;42.208;24.952;2023-04-27T08:42:51;99664.47;;;16.97;57.68
33554;BME280;19885;42.208;24.952;2023-04-27T08:45:18;99663.94;;;17.22;57.01
33554;BME280;19885;42.208;24.952;2023-04-27T08:47:44;99664.81;;;17.21;58.35
33554;BME280;19885;42.208;24.952;2023-04-27T08:50:11;99659.78;;;17.47;60.38
33554;BME280;19885;42.208;24.952;2023-04-27T08:52:37;99657.19;;;17.45;58.61
33554;BME280;19885;42.208;24.952;2023-04-27T08:55:02;99658.13;;;17.43;58.05
33554;BME280;19885;42.208;24.952;2023-04-27T08:57:30;99658.13;;;17.43;54.05
33554;BME280;19885;42.208;24.952;2023-04-27T08:59:58;99657.09;;;17.85;58.10
33554;BME280;19885;42.208;24.952;2023-04-27T09:02:25;99661.19;;;17.97;56.84
33554;BME280;19885;42.208;24.952;2023-04-27T09:04:54;99658.75;;;17.89;55.79
33554;BME280;19885;42.208;24.952;2023-04-27T09:07:20;99654.22;;;17.94;55.77
33554;BME280;19885;42.208;24.952;2023-04-27T09:09:46;99651.22;;;18.06;56.53
33554;BME280;19885;42.208;24.952;2023-04-27T09:12:20;99657.69;;;18.28;56.61
33554;BME280;19885;42.208;24.952;2023-04-27T09:14:59;99639.22;;;18.28;53.98
33554;BME280;19885;42.208;24.952;2023-04-27T09:17:28;99653.34;;;18.26;53.71
33554;BME280;19885;42.208;24.952;2023-04-27T09:22:49;99653.41;;;18.23;48.24
33554;BME280;19885;42.208;24.952;2023-04-27T09:25:27;99646.25;;;18.28;51.09
33554;BME280;19885;42.208;24.952;2023-04-27T09:27:53;99653.16;;;18.32;49.46
33554;BME280;19885;42.208;24.952;2023-04-27T09:30:19;99650.66;;;18.27;51.14
33554;BME280;19885;42.208;24.952;2023-04-27T09:32:55;99636.84;;;18.50;48.90
33554;BME280;19885;42.208;24.952;2023-04-27T09:35:26;99634.75;;;18.61;49.19
33554;BME280;19885;42.208;24.952;2023-04-27T09:37:52;99597.19;;;18.51;49.81
33554;BME280;19885;42.208;24.952;2023-04-27T09:40:19;99637.31;;;18.64;49.83
33554;BME280;19885;42.208;24.952;2023-04-27T09:42:48;99628.47;;;18.65;49.75
33554;BME280;19885;42.208;24.952;2023-04-27T09:45:14;99623.50;;;18.84;51.73
33554;BME280;19885;42.208;24.952;2023-04-27T09:47:40;99620.47;;;18.68;48.52
33554;BME280;19885;42.208;24.952;2023-04-27T09:50:06;99635.22;;;18.75;49.08
33554;BME280;19885;42.208;24.952;2023-04-27T09:52:33;99621.69;;;18.57;51.01
33554;BME280;19885;42.208;24.952;2023-04-27T09:54:59;99619.03;;;18.57;46.67
33554;BME280;19885;42.208;24.952;2023-04-27T10:00:09;99617.41;;;18.82;51.32
33554;BME280;19885;42.208;24.952;2023-04-27T10:02:53;99620.97;;;18.81;50.53
33554;BME280;19885;42.208;24.952;2023-04-27T10:05:33;99620.25;;;18.74;48.34
33554;BME280;19885;42.208;24.952;2023-04-27T10:08:03;99608.13;;;18.69;49.38
33554;BME280;19885;42.208;24.952;2023-04-27T10:10:29;99618.16;;;18.58;48.90
33554;BME280;19885;42.208;24.952;2023-04-27T10:12:56;99621.13;;;18.75;50.23
33554;BME280;19885;42.208;24.952;2023-04-27T10:15:27;99612.47;;;18.70;49.41
33554;BME280;19885;42.208;24.952;2023-04-27T10:17:52;99615.78;;;18.78;47.09
33554;BME280;19885;42.208;24.952;2023-04-27T10:20:35;99610.97;;;18.63;49.01
33554;BME280;19885;42.208;24.952;2023-04-27T10:23:01;99612.47;;;18.70;51.45
33554;BME280;19885;42.208;24.952;2023-04-27T10:25:29;99606.50;;;18.65;51.43
33554;BME280;19885;42.208;24.952;2023-04-27T10:27:57;99614.03;;;18.77;50.75
33554;BME280;19885;42.208;24.952;2023-04-27T10:30:25;99618.19;;;18.85;51.90
33554;BME280;19885;42.208;24.952;2023-04-27T10:32:56;99608.19;;;18.36;47.40
33554;BME280;19885;42.208;24.952;2023-04-27T10:35:33;99611.56;;;18.41;50.71
33554;BME280;19885;42.208;24.952;2023-04-27T10:38:17;99611.22;;;18.83;51.12
33554;BME280;19885;42.208;24.952;2023-04-27T10:40:44;99608.47;;;18.86;49.96
33554;BME280;19885;42.208;24.952;2023-04-27T10:43:15;99576.25;;;19.02;47.19
33554;BME280;19885;42.208;24.952;2023-04-27T10:45:43;99608.69;;;19.35;47.53
33554;BME280;19885;42.208;24.952;2023-04-27T10:48:12;99611.78;;;19.48;49.92
33554;BME280;19885;42.208;24.952;2023-04-27T10:50:41;99615.59;;;19.39;50.08
33554;BME280;19885;42.208;24.952;2023-04-27T10:53:09;99606.72;;;19.40;45.90
33554;BME280;19885;42.208;24.952;2023-04-27T10:55:35;99608.56;;;19.10;47.04
33554;BME280;19885;42.208;24.952;2023-04-27T10:58:01;99611.03;;;18.89;46.91
33554;BME280;19885;42.208;24.952;2023-04-27T11:00:32;99598.59;;;18.63;47.11
33554;BME280;19885;42.208;24.952;2023-04-27T11:03:09;99591.91;;;18.51;47.60
33554;BME280;19885;42.208;24.952;2023-04-27T11:05:36;99604.28;;;18.79;50.77
33554;BME280;19885;42.208;24.952;2023-04-27T11:08:06;99619.19;;;18.52;50.21
33554;BME280;19885;42.208;24.952;2023-04-27T11:10:32;99608.03;;;18.72;47.76
33554;BME280;19885;42.208;24.952;2023-04-27T11:18:18;99602.19;;;18.90;50.20
33554;BME280;19885;42.208;24.952;2023-04-27T11:20:47;99603.66;;;19.26;48.29
33554;BME280;19885;42.208;24.952;2023-04-27T11:23:29;99611.09;;;19.13;49.06
33554;BME280;19885;42.208;24.952;2023-04-27T11:28:36;99600.94;;;18.43;48.81
33554;BME280;19885;42.208;24.952;2023-04-27T11:31:02;99607.03;;;18.46;49.36
33554;BME280;19885;42.208;24.952;2023-04-27T11:33:30;99609.00;;;18.08;51.00
33554;BME280;19885;42.208;24.952;2023-04-27T11:35:57;99617.44;;;17.88;54.28
33554;BME280;19885;42.208;24.952;2023-04-27T11:38:22;99621.66;;;17.95;52.32
33554;BME280;19885;42.208;24.952;2023-04-27T11:41:03;99621.31;;;18.07;51.69
33554;BME280;19885;42.208;24.952;2023-04-27T11:43:29;99614.09;;;17.81;52.74
33554;BME280;19885;42.208;24.952;2023-04-27T11:45:55;99625.03;;;17.68;52.52
33554;BME280;19885;42.208;24.952;2023-04-27T11:48:26;99627.56;;;17.36;53.42
33554;BME280;19885;42.208;24.952;2023-04-27T11:50:51;99624.66;;;17.11;53.52
33554;BME280;19885;42.208;24.952;2023-04-27T11:53:28;99629.25;;;17.01;57.42
33554;BME280;19885;42.208;24.952;2023-04-27T11:55:54;99642.09;;;16.78;57.77
33554;BME280;19885;42.208;24.952;2023-04-27T11:58:21;99602.56;;;16.38;56.73
33554;BME280;19885;42.208;24.952;2023-04-27T12:00:46;99604.09;;;16.50;59.11
33554;BME280;19885;42.208;24.952;2023-04-27T12:03:12;99642.59;;;16.54;55.13
33554;BME280;19885;42.208;24.952;2023-04-27T12:05:48;99638.03;;;16.64;56.85
33554;BME280;19885;42.208;24.952;2023-04-27T12:08:15;99645.81;;;16.68;56.46
33554;BME280;19885;42.208;24.952;2023-04-27T12:10:40;99635.91;;;16.79;55.58
33554;BME280;19885;42.208;24.952;2023-04-27T12:13:06;99633.09;;;16.88;57.20
33554;BME280;19885;42.208;24.952;2023-04-27T12:15:32;99647.06;;;16.90;51.89
33554;BME280;19885;42.208;24.952;2023-04-27T12:17:58;99641.16;;;16.81;55.69
33554;BME280;19885;42.208;24.952;2023-04-27T12:20:23;99635.81;;;16.84;60.02
33554;BME280;19885;42.208;24.952;2023-04-27T12:22:49;99648.66;;;16.97;59.96
33554;BME280;19885;42.208;24.952;2023-04-27T12:25:14;99644.00;;;17.10;60.01
33554;BME280;19885;42.208;24.952;2023-04-27T12:27:41;99643.63;;;17.25;61.42
33554;BME280;19885;42.208;24.952;2023-04-27T12:30:08;99634.72;;;17.31;61.44
33554;BME280;19885;42.208;24.952;2023-04-27T12:32:33;99650.09;;;17.49;62.12
33554;BME280;19885;42.208;24.952;2023-04-27T12:34:59;99636.72;;;17.56;60.90
33554;BME280;19885;42.208;24.952;2023-04-27T12:37:24;99650.38;;;17.72;60.05
33554;BME280;19885;42.208;24.952;2023-04-27T12:39:50;99634.69;;;17.67;61.29
33554;BME280;19885;42.208;24.952;2023-04-27T12:42:16;99643.22;;;17.78;61.63
33554;BME280;19885;42.208;24.952;2023-04-27T12:44:43;99647.06;;;17.98;60.98
33554;BME280;19885;42.208;24.952;2023-04-27T12:47:09;99627.09;;;17.89;61.37
33554;BME280;19885;42.208;24.952;2023-04-27T12:49:34;99629.94;;;17.81;60.27
33554;BME280;19885;42.208;24.952;2023-04-27T12:52:01;99636.47;;;17.67;61.72
33554;BME280;19885;42.208;24.952;2023-04-27T12:54:26;99633.31;;;17.53;64.42
33554;BME280;19885;42.208;24.952;2023-04-27T12:56:52;99636.72;;;17.58;61.38
33554;BME280;19885;42.208;24.952;2023-04-27T12:59:17;99639.78;;;17.75;62.56
33554;BME280;19885;42.208;24.952;2023-04-27T13:01:42;99625.28;;;17.91;60.55